sensor_id;sensor_type;location;lat;lon;timestamp;temperature;humidity
46037;DHT22;31769;49.304;8.428;2023-07-16T00:01:01;19.60;99.90
46037;DHT22;31769;49.304;8.428;2023-07-16T00:04:02;19.60;99.90
46037;DHT22;31769;49.304;8.428;2023-07-16T00:07:03;19.60;99.90
46037;DHT22;31769;49.304;8.428;2023-07-16T00:10:04;19.60;99.90
46037;DHT22;31769;49.304;8.428;2023-07-16T00:13:05;19.60;99.90
46037;DHT22;31769;49.304;8.428;2023-07-16T00:16:05;19.60;99.90
46037;DHT22;31769;49.304;8.428;2023-07-16T00:19:06;19.60;99.90
46037;DHT22;31769;49.304;8.428;2023-07-16T00:22:07;19.60;99.90
46037;DHT22;31769;49.304;8.428;2023-07-16T00:25:08;19.60;99.90
46037;DHT22;31769;49.304;8.428;2023-07-16T00:28:09;19.60;99.90
46037;DHT22;31769;49.304;8.428;2023-07-16T00:31:12;19.60;99.90
46037;DHT22;31769;49.304;8.428;2023-07-16T00:34:13;19.60;99.90
46037;DHT22;31769;49.304;8.428;2023-07-16T00:37:14;19.60;99.90
46037;DHT22;31769;49.304;8.428;2023-07-16T00:40:15;19.50;99.90
46037;DHT22;31769;49.304;8.428;2023-07-16T00:43:16;19.50;99.90
46037;DHT22;31769;49.304;8.428;2023-07-16T00:46:17;19.50;99.90
46037;DHT22;31769;49.304;8.428;2023-07-16T00:49:18;19.50;99.90
46037;DHT22;31769;49.304;8.428;2023-07-16T00:52:21;19.40;99.90
46037;DHT22;31769;49.304;8.428;2023-07-16T00:55:24;19.40;99.90
46037;DHT22;31769;49.304;8.428;2023-07-16T00:58:24;19.40;99.90
46037;DHT22;31769;49.304;8.428;2023-07-16T01:01:26;19.30;99.90
46037;DHT22;31769;49.304;8.428;2023-07-16T01:04:27;19.30;99.90
46037;DHT22;31769;49.304;8.428;2023-07-16T01:07:29;19.30;99.90
46037;DHT22;31769;49.304;8.428;2023-07-16T01:10:31;19.20;99.90
46037;DHT22;31769;49.304;8.428;2023-07-16T01:13:32;19.20;99.90
46037;DHT22;31769;49.304;8.428;2023-07-16T01:16:33;19.10;99.90
46037;DHT22;31769;49.304;8.428;2023-07-16T01:19:34;19.10;99.90
46037;DHT22;31769;49.304;8.428;2023-07-16T01:29:31;19.00;99.90
46037;DHT22;31769;49.304;8.428;2023-07-16T01:32:33;18.90;99.90
46037;DHT22;31769;49.304;8.428;2023-07-16T01:35:35;18.90;99.90
46037;DHT22;31769;49.304;8.428;2023-07-16T01:38:37;18.90;99.90
46037;DHT22;31769;49.304;8.428;2023-07-16T01:41:37;18.90;99.90
46037;DHT22;31769;49.304;8.428;2023-07-16T01:44:38;18.90;99.90
46037;DHT22;31769;49.304;8.428;2023-07-16T01:51:08;18.90;99.90
46037;DHT22;31769;49.304;8.428;2023-07-16T01:54:09;18.80;99.90
46037;DHT22;31769;49.304;8.428;2023-07-16T01:57:10;18.80;99.90
46037;DHT22;31769;49.304;8.428;2023-07-16T02:00:11;18.80;99.90
46037;DHT22;31769;49.304;8.428;2023-07-16T02:03:21;18.70;99.90
46037;DHT22;31769;49.304;8.428;2023-07-16T02:06:22;18.60;99.90
46037;DHT22;31769;49.304;8.428;2023-07-16T02:09:23;18.60;99.90
46037;DHT22;31769;49.304;8.428;2023-07-16T02:12:25;18.50;99.90
46037;DHT22;31769;49.304;8.428;2023-07-16T02:15:26;18.50;99.90
46037;DHT22;31769;49.304;8.428;2023-07-16T02:18:27;18.50;99.90
46037;DHT22;31769;49.304;8.428;2023-07-16T02:21:27;18.40;99.90
46037;DHT22;31769;49.304;8.428;2023-07-16T02:24:28;18.40;99.90
46037;DHT22;31769;49.304;8.428;2023-07-16T02:27:29;18.30;99.90
46037;DHT22;31769;49.304;8.428;2023-07-16T02:30:30;18.40;99.90
46037;DHT22;31769;49.304;8.428;2023-07-16T02:33:30;18.30;99.90
46037;DHT22;31769;49.304;8.428;2023-07-16T02:36:31;18.30;99.90
46037;DHT22;31769;49.304;8.428;2023-07-16T02:39:32;18.30;99.90
46037;DHT22;31769;49.304;8.428;2023-07-16T02:42:33;18.30;99.90
46037;DHT22;31769;49.304;8.428;2023-07-16T02:45:34;18.20;99.90
46037;DHT22;31769;49.304;8.428;2023-07-16T02:48:34;18.20;99.90
46037;DHT22;31769;49.304;8.428;2023-07-16T02:51:36;18.20;99.90
46037;DHT22;31769;49.304;8.428;2023-07-16T02:54:37;18.20;99.90
46037;DHT22;31769;49.304;8.428;2023-07-16T02:57:38;18.20;99.90
46037;DHT22;31769;49.304;8.428;2023-07-16T03:00:39;18.10;99.90
46037;DHT22;31769;49.304;8.428;2023-07-16T03:03:40;18.10;99.90
46037;DHT22;31769;49.304;8.428;2023-07-16T03:06:40;18.10;99.90
46037;DHT22;31769;49.304;8.428;2023-07-16T03:09:41;18.00;99.90
46037;DHT22;31769;49.304;8.428;2023-07-16T03:12:42;18.10;99.90
46037;DHT22;31769;49.304;8.428;2023-07-16T03:15:43;18.10;99.90
46037;DHT22;31769;49.304;8.428;2023-07-16T03:18:44;18.00;99.90
46037;DHT22;31769;49.304;8.428;2023-07-16T03:21:49;18.00;99.90
46037;DHT22;31769;49.304;8.428;2023-07-16T03:24:50;18.00;99.90
46037;DHT22;31769;49.304;8.428;2023-07-16T03:27:51;18.00;99.90
46037;DHT22;31769;49.304;8.428;2023-07-16T03:30:52;18.00;99.90
46037;DHT22;31769;49.304;8.428;2023-07-16T03:33:54;17.90;99.90
46037;DHT22;31769;49.304;8.428;2023-07-16T03:36:58;17.90;99.90
46037;DHT22;31769;49.304;8.428;2023-07-16T03:40:16;17.90;99.90
46037;DHT22;31769;49.304;8.428;2023-07-16T03:43:19;17.80;99.90
46037;DHT22;31769;49.304;8.428;2023-07-16T03:46:21;17.80;99.90
46037;DHT22;31769;49.304;8.428;2023-07-16T03:49:22;17.80;99.90
46037;DHT22;31769;49.304;8.428;2023-07-16T03:52:22;17.80;99.90
46037;DHT22;31769;49.304;8.428;2023-07-16T03:55:25;17.80;99.90
46037;DHT22;31769;49.304;8.428;2023-07-16T03:58:26;17.70;99.90
46037;DHT22;31769;49.304;8.428;2023-07-16T04:01:29;17.70;99.90
46037;DHT22;31769;49.304;8.428;2023-07-16T04:04:30;17.80;99.90
46037;DHT22;31769;49.304;8.428;2023-07-16T04:07:31;17.80;99.90
46037;DHT22;31769;49.304;8.428;2023-07-16T04:10:32;17.70;99.90
46037;DHT22;31769;49.304;8.428;2023-07-16T04:13:33;17.70;99.90
46037;DHT22;31769;49.304;8.428;2023-07-16T04:16:34;17.80;99.90
46037;DHT22;31769;49.304;8.428;2023-07-16T04:19:35;17.80;99.90
46037;DHT22;31769;49.304;8.428;2023-07-16T04:22:36;17.80;99.90
46037;DHT22;31769;49.304;8.428;2023-07-16T04:25:37;17.90;99.90
46037;DHT22;31769;49.304;8.428;2023-07-16T04:28:37;18.00;99.90
46037;DHT22;31769;49.304;8.428;2023-07-16T04:31:39;18.00;99.90
46037;DHT22;31769;49.304;8.428;2023-07-16T04:34:40;17.90;99.90
46037;DHT22;31769;49.304;8.428;2023-07-16T04:37:41;18.00;99.90
46037;DHT22;31769;49.304;8.428;2023-07-16T04:40:42;17.90;99.90
46037;DHT22;31769;49.304;8.428;2023-07-16T04:43:44;17.90;99.90
46037;DHT22;31769;49.304;8.428;2023-07-16T04:46:44;17.80;99.90
46037;DHT22;31769;49.304;8.428;2023-07-16T04:49:45;17.80;99.90
46037;DHT22;31769;49.304;8.428;2023-07-16T04:52:46;17.70;99.90
46037;DHT22;31769;49.304;8.428;2023-07-16T04:55:46;17.70;99.90
46037;DHT22;31769;49.304;8.428;2023-07-16T04:58:47;17.90;99.90
46037;DHT22;31769;49.304;8.428;2023-07-16T05:01:48;17.90;99.90
46037;DHT22;31769;49.304;8.428;2023-07-16T05:04:48;17.90;99.90
46037;DHT22;31769;49.304;8.428;2023-07-16T05:07:49;17.90;99.90
46037;DHT22;31769;49.304;8.428;2023-07-16T05:10:50;18.00;99.90
46037;DHT22;31769;49.304;8.428;2023-07-16T05:13:50;18.00;99.90
46037;DHT22;31769;49.304;8.428;2023-07-16T05:16:51;17.90;99.90
46037;DHT22;31769;49.304;8.428;2023-07-16T05:19:52;18.00;99.90
46037;DHT22;31769;49.304;8.428;2023-07-16T05:22:52;18.10;99.90
46037;DHT22;31769;49.304;8.428;2023-07-16T05:25:53;18.10;99.90
46037;DHT22;31769;49.304;8.428;2023-07-16T05:28:54;17.90;99.90
46037;DHT22;31769;49.304;8.428;2023-07-16T05:31:54;18.10;99.90
46037;DHT22;31769;49.304;8.428;2023-07-16T05:34:55;18.10;99.90
46037;DHT22;31769;49.304;8.428;2023-07-16T05:37:56;18.10;99.90
46037;DHT22;31769;49.304;8.428;2023-07-16T05:41:01;18.20;99.90
46037;DHT22;31769;49.304;8.428;2023-07-16T05:44:03;18.20;99.90
46037;DHT22;31769;49.304;8.428;2023-07-16T05:47:04;18.30;99.90
46037;DHT22;31769;49.304;8.428;2023-07-16T05:50:05;18.40;99.90
46037;DHT22;31769;49.304;8.428;2023-07-16T05:53:06;18.40;99.90
46037;DHT22;31769;49.304;8.428;2023-07-16T05:56:06;18.50;99.90
46037;DHT22;31769;49.304;8.428;2023-07-16T05:59:07;18.50;99.90
46037;DHT22;31769;49.304;8.428;2023-07-16T06:02:08;18.50;99.90
46037;DHT22;31769;49.304;8.428;2023-07-16T06:05:09;18.70;99.90
46037;DHT22;31769;49.304;8.428;2023-07-16T06:08:09;18.60;99.90
46037;DHT22;31769;49.304;8.428;2023-07-16T06:11:10;18.60;99.90
46037;DHT22;31769;49.304;8.428;2023-07-16T06:14:11;18.60;99.90
46037;DHT22;31769;49.304;8.428;2023-07-16T06:17:11;18.70;99.90
46037;DHT22;31769;49.304;8.428;2023-07-16T06:20:12;18.80;99.90
46037;DHT22;31769;49.304;8.428;2023-07-16T06:23:13;18.90;99.90
46037;DHT22;31769;49.304;8.428;2023-07-16T06:26:14;18.90;99.90
46037;DHT22;31769;49.304;8.428;2023-07-16T06:29:14;18.90;99.90
46037;DHT22;31769;49.304;8.428;2023-07-16T06:32:15;18.80;99.90
46037;DHT22;31769;49.304;8.428;2023-07-16T06:35:16;18.80;99.90
46037;DHT22;31769;49.304;8.428;2023-07-16T06:38:16;18.80;99.90
46037;DHT22;31769;49.304;8.428;2023-07-16T06:41:18;18.80;99.90
46037;DHT22;31769;49.304;8.428;2023-07-16T06:44:18;18.80;99.90
46037;DHT22;31769;49.304;8.428;2023-07-16T06:47:19;18.70;99.90
46037;DHT22;31769;49.304;8.428;2023-07-16T06:50:20;18.80;99.90
46037;DHT22;31769;49.304;8.428;2023-07-16T06:53:20;19.00;99.90
46037;DHT22;31769;49.304;8.428;2023-07-16T06:56:21;19.30;99.90
46037;DHT22;31769;49.304;8.428;2023-07-16T06:59:22;19.50;99.90
46037;DHT22;31769;49.304;8.428;2023-07-16T07:02:23;19.60;99.90
46037;DHT22;31769;49.304;8.428;2023-07-16T07:05:23;19.70;99.90
46037;DHT22;31769;49.304;8.428;2023-07-16T07:08:24;19.70;99.90
46037;DHT22;31769;49.304;8.428;2023-07-16T07:11:25;19.60;99.90
46037;DHT22;31769;49.304;8.428;2023-07-16T07:14:25;19.50;99.90
46037;DHT22;31769;49.304;8.428;2023-07-16T07:17:26;19.60;99.90
46037;DHT22;31769;49.304;8.428;2023-07-16T07:20:27;19.70;99.90
46037;DHT22;31769;49.304;8.428;2023-07-16T07:23:27;19.70;99.90
46037;DHT22;31769;49.304;8.428;2023-07-16T07:26:28;19.70;99.90
46037;DHT22;31769;49.304;8.428;2023-07-16T07:29:29;19.50;99.90
46037;DHT22;31769;49.304;8.428;2023-07-16T07:32:30;19.50;99.90
46037;DHT22;31769;49.304;8.428;2023-07-16T07:35:30;19.60;99.90
46037;DHT22;31769;49.304;8.428;2023-07-16T07:38:31;19.80;99.90
46037;DHT22;31769;49.304;8.428;2023-07-16T07:41:32;19.90;99.90
46037;DHT22;31769;49.304;8.428;2023-07-16T07:44:32;19.80;99.90
46037;DHT22;31769;49.304;8.428;2023-07-16T07:47:33;19.80;99.90
46037;DHT22;31769;49.304;8.428;2023-07-16T07:50:34;20.10;99.90
46037;DHT22;31769;49.304;8.428;2023-07-16T07:53:34;20.20;99.90
46037;DHT22;31769;49.304;8.428;2023-07-16T07:56:35;20.10;99.90
46037;DHT22;31769;49.304;8.428;2023-07-16T07:59:35;20.10;99.90
46037;DHT22;31769;49.304;8.428;2023-07-16T08:02:36;20.00;99.90
46037;DHT22;31769;49.304;8.428;2023-07-16T08:05:37;20.20;99.90
46037;DHT22;31769;49.304;8.428;2023-07-16T08:08:37;20.40;99.90
46037;DHT22;31769;49.304;8.428;2023-07-16T08:11:38;20.50;99.90
46037;DHT22;31769;49.304;8.428;2023-07-16T08:14:39;20.60;99.90
46037;DHT22;31769;49.304;8.428;2023-07-16T08:17:44;20.70;99.90
46037;DHT22;31769;49.304;8.428;2023-07-16T08:20:46;20.90;99.90
46037;DHT22;31769;49.304;8.428;2023-07-16T08:23:50;21.00;99.90
46037;DHT22;31769;49.304;8.428;2023-07-16T08:26:50;20.80;99.90
46037;DHT22;31769;49.304;8.428;2023-07-16T08:29:51;20.80;99.90
46037;DHT22;31769;49.304;8.428;2023-07-16T08:32:52;20.80;99.90
46037;DHT22;31769;49.304;8.428;2023-07-16T08:35:52;20.90;99.90
46037;DHT22;31769;49.304;8.428;2023-07-16T08:38:53;21.00;99.90
46037;DHT22;31769;49.304;8.428;2023-07-16T08:41:54;21.10;99.90
46037;DHT22;31769;49.304;8.428;2023-07-16T08:44:54;21.30;99.90
46037;DHT22;31769;49.304;8.428;2023-07-16T08:47:55;21.20;99.90
46037;DHT22;31769;49.304;8.428;2023-07-16T08:50:57;21.30;99.90
46037;DHT22;31769;49.304;8.428;2023-07-16T08:53:59;21.50;99.90
46037;DHT22;31769;49.304;8.428;2023-07-16T08:57:00;21.60;99.90
46037;DHT22;31769;49.304;8.428;2023-07-16T09:00:01;21.80;99.90
46037;DHT22;31769;49.304;8.428;2023-07-16T09:03:02;21.80;99.90
46037;DHT22;31769;49.304;8.428;2023-07-16T09:06:04;21.70;99.90
46037;DHT22;31769;49.304;8.428;2023-07-16T09:09:04;21.80;99.90
46037;DHT22;31769;49.304;8.428;2023-07-16T09:12:05;21.90;99.90
46037;DHT22;31769;49.304;8.428;2023-07-16T09:15:07;22.30;99.90
46037;DHT22;31769;49.304;8.428;2023-07-16T09:18:08;22.00;99.90
46037;DHT22;31769;49.304;8.428;2023-07-16T09:21:11;22.00;99.90
46037;DHT22;31769;49.304;8.428;2023-07-16T09:24:11;21.90;99.90
46037;DHT22;31769;49.304;8.428;2023-07-16T09:27:13;21.90;99.90
46037;DHT22;31769;49.304;8.428;2023-07-16T09:30:17;21.70;99.90
46037;DHT22;31769;49.304;8.428;2023-07-16T09:33:22;21.90;99.90
46037;DHT22;31769;49.304;8.428;2023-07-16T09:36:26;22.10;99.90
46037;DHT22;31769;49.304;8.428;2023-07-16T09:39:27;22.40;99.90
46037;DHT22;31769;49.304;8.428;2023-07-16T09:42:28;22.40;99.90
46037;DHT22;31769;49.304;8.428;2023-07-16T09:45:29;22.60;99.90
46037;DHT22;31769;49.304;8.428;2023-07-16T09:48:30;22.70;99.90
46037;DHT22;31769;49.304;8.428;2023-07-16T09:51:31;22.50;99.90
46037;DHT22;31769;49.304;8.428;2023-07-16T09:54:35;22.30;99.90
46037;DHT22;31769;49.304;8.428;2023-07-16T09:57:40;22.00;99.90
46037;DHT22;31769;49.304;8.428;2023-07-16T10:00:41;22.00;99.90
46037;DHT22;31769;49.304;8.428;2023-07-16T10:03:50;22.00;99.90
46037;DHT22;31769;49.304;8.428;2023-07-16T10:07:00;22.10;99.90
46037;DHT22;31769;49.304;8.428;2023-07-16T10:10:10;22.40;99.90
46037;DHT22;31769;49.304;8.428;2023-07-16T10:13:12;22.30;99.90
46037;DHT22;31769;49.304;8.428;2023-07-16T10:16:20;22.50;99.90
46037;DHT22;31769;49.304;8.428;2023-07-16T10:19:24;22.80;99.90
46037;DHT22;31769;49.304;8.428;2023-07-16T10:22:42;23.00;99.90
46037;DHT22;31769;49.304;8.428;2023-07-16T10:25:59;23.20;99.90
46037;DHT22;31769;49.304;8.428;2023-07-16T10:29:00;23.00;99.90
46037;DHT22;31769;49.304;8.428;2023-07-16T10:32:02;23.10;99.90
46037;DHT22;31769;49.304;8.428;2023-07-16T10:35:04;23.00;99.90
46037;DHT22;31769;49.304;8.428;2023-07-16T10:38:05;22.90;99.90
46037;DHT22;31769;49.304;8.428;2023-07-16T10:41:05;23.10;99.90
46037;DHT22;31769;49.304;8.428;2023-07-16T10:44:08;23.10;99.90
46037;DHT22;31769;49.304;8.428;2023-07-16T10:47:40;23.10;99.90
46037;DHT22;31769;49.304;8.428;2023-07-16T10:50:39;23.20;99.90
46037;DHT22;31769;49.304;8.428;2023-07-16T10:53:42;23.60;99.90
46037;DHT22;31769;49.304;8.428;2023-07-16T10:56:43;23.60;99.90
46037;DHT22;31769;49.304;8.428;2023-07-16T10:59:45;23.50;99.90
46037;DHT22;31769;49.304;8.428;2023-07-16T11:02:46;23.70;99.90
46037;DHT22;31769;49.304;8.428;2023-07-16T11:05:47;23.60;99.90
46037;DHT22;31769;49.304;8.428;2023-07-16T11:08:49;23.80;99.90
46037;DHT22;31769;49.304;8.428;2023-07-16T11:11:49;23.60;99.70
46037;DHT22;31769;49.304;8.428;2023-07-16T11:14:52;23.50;99.30
46037;DHT22;31769;49.304;8.428;2023-07-16T11:17:53;23.70;99.90
46037;DHT22;31769;49.304;8.428;2023-07-16T11:20:54;23.60;98.60
46037;DHT22;31769;49.304;8.428;2023-07-16T11:23:54;23.70;98.50
46037;DHT22;31769;49.304;8.428;2023-07-16T11:26:55;23.70;98.50
46037;DHT22;31769;49.304;8.428;2023-07-16T11:30:00;23.90;97.80
46037;DHT22;31769;49.304;8.428;2023-07-16T11:33:00;24.20;97.10
46037;DHT22;31769;49.304;8.428;2023-07-16T11:36:01;24.40;97.10
46037;DHT22;31769;49.304;8.428;2023-07-16T11:39:03;24.40;96.50
46037;DHT22;31769;49.304;8.428;2023-07-16T11:42:04;24.60;96.90
46037;DHT22;31769;49.304;8.428;2023-07-16T11:45:20;24.60;96.30
46037;DHT22;31769;49.304;8.428;2023-07-16T11:48:21;24.90;96.30
46037;DHT22;31769;49.304;8.428;2023-07-16T11:51:22;25.00;95.60
46037;DHT22;31769;49.304;8.428;2023-07-16T11:54:22;25.00;94.30
46037;DHT22;31769;49.304;8.428;2023-07-16T11:57:23;25.00;94.40
46037;DHT22;31769;49.304;8.428;2023-07-16T12:00:24;25.10;94.70
46037;DHT22;31769;49.304;8.428;2023-07-16T12:03:25;25.20;94.90
46037;DHT22;31769;49.304;8.428;2023-07-16T12:06:25;24.90;93.90
46037;DHT22;31769;49.304;8.428;2023-07-16T12:09:26;25.00;93.90
46037;DHT22;31769;49.304;8.428;2023-07-16T12:12:26;25.40;94.00
46037;DHT22;31769;49.304;8.428;2023-07-16T12:15:27;26.10;92.50
46037;DHT22;31769;49.304;8.428;2023-07-16T12:18:28;26.50;91.50
46037;DHT22;31769;49.304;8.428;2023-07-16T12:21:30;26.70;91.60
46037;DHT22;31769;49.304;8.428;2023-07-16T12:24:31;26.60;91.00
46037;DHT22;31769;49.304;8.428;2023-07-16T12:27:32;26.20;90.70
46037;DHT22;31769;49.304;8.428;2023-07-16T12:30:32;26.10;90.60
46037;DHT22;31769;49.304;8.428;2023-07-16T12:33:33;25.80;90.60
46037;DHT22;31769;49.304;8.428;2023-07-16T12:36:33;26.20;90.60
46037;DHT22;31769;49.304;8.428;2023-07-16T12:39:34;26.50;90.10
46037;DHT22;31769;49.304;8.428;2023-07-16T12:42:35;26.70;89.50
46037;DHT22;31769;49.304;8.428;2023-07-16T12:45:35;26.50;86.50
46037;DHT22;31769;49.304;8.428;2023-07-16T12:48:36;26.30;88.80
46037;DHT22;31769;49.304;8.428;2023-07-16T12:51:37;27.00;87.20
46037;DHT22;31769;49.304;8.428;2023-07-16T12:54:37;28.40;83.30
46037;DHT22;31769;49.304;8.428;2023-07-16T12:57:38;28.70;77.80
46037;DHT22;31769;49.304;8.428;2023-07-16T13:00:39;30.00;75.30
46037;DHT22;31769;49.304;8.428;2023-07-16T13:03:39;29.80;73.70
46037;DHT22;31769;49.304;8.428;2023-07-16T13:06:40;28.50;73.90
46037;DHT22;31769;49.304;8.428;2023-07-16T13:09:41;29.40;73.20
46037;DHT22;31769;49.304;8.428;2023-07-16T13:12:41;31.60;69.20
46037;DHT22;31769;49.304;8.428;2023-07-16T13:15:42;31.70;65.10
46037;DHT22;31769;49.304;8.428;2023-07-16T13:18:42;30.30;68.00
46037;DHT22;31769;49.304;8.428;2023-07-16T13:21:43;30.80;66.90
46037;DHT22;31769;49.304;8.428;2023-07-16T13:24:44;31.10;65.00
46037;DHT22;31769;49.304;8.428;2023-07-16T13:27:44;31.50;64.30
46037;DHT22;31769;49.304;8.428;2023-07-16T13:30:45;32.60;63.30
46037;DHT22;31769;49.304;8.428;2023-07-16T13:33:46;32.50;60.40
46037;DHT22;31769;49.304;8.428;2023-07-16T13:36:46;31.40;61.70
46037;DHT22;31769;49.304;8.428;2023-07-16T13:39:47;31.00;62.30
46037;DHT22;31769;49.304;8.428;2023-07-16T13:42:47;32.00;58.90
46037;DHT22;31769;49.304;8.428;2023-07-16T13:45:48;32.20;58.10
46037;DHT22;31769;49.304;8.428;2023-07-16T13:48:49;34.10;56.10
46037;DHT22;31769;49.304;8.428;2023-07-16T13:51:49;34.40;54.10
46037;DHT22;31769;49.304;8.428;2023-07-16T13:54:50;34.00;54.90
46037;DHT22;31769;49.304;8.428;2023-07-16T13:57:51;33.60;55.20
46037;DHT22;31769;49.304;8.428;2023-07-16T14:00:52;32.80;55.40
46037;DHT22;31769;49.304;8.428;2023-07-16T14:03:52;35.10;52.70
46037;DHT22;31769;49.304;8.428;2023-07-16T14:06:54;34.70;52.20
46037;DHT22;31769;49.304;8.428;2023-07-16T14:09:55;35.10;51.80
46037;DHT22;31769;49.304;8.428;2023-07-16T14:12:56;35.90;50.20
46037;DHT22;31769;49.304;8.428;2023-07-16T14:15:57;37.00;49.50
46037;DHT22;31769;49.304;8.428;2023-07-16T14:18:57;37.90;46.90
46037;DHT22;31769;49.304;8.428;2023-07-16T14:21:58;37.40;47.20
46037;DHT22;31769;49.304;8.428;2023-07-16T14:24:59;36.60;48.30
46037;DHT22;31769;49.304;8.428;2023-07-16T14:27:59;37.40;47.30
46037;DHT22;31769;49.304;8.428;2023-07-16T14:31:00;37.60;45.90
46037;DHT22;31769;49.304;8.428;2023-07-16T14:34:01;37.60;45.00
46037;DHT22;31769;49.304;8.428;2023-07-16T14:37:02;38.60;45.00
46037;DHT22;31769;49.304;8.428;2023-07-16T14:40:05;37.40;46.30
46037;DHT22;31769;49.304;8.428;2023-07-16T14:43:08;36.10;47.20
46037;DHT22;31769;49.304;8.428;2023-07-16T14:46:09;34.80;48.60
46037;DHT22;31769;49.304;8.428;2023-07-16T14:49:15;35.80;47.40
46037;DHT22;31769;49.304;8.428;2023-07-16T14:52:16;36.10;47.20
46037;DHT22;31769;49.304;8.428;2023-07-16T14:55:17;36.40;45.90
46037;DHT22;31769;49.304;8.428;2023-07-16T14:58:18;35.80;46.20
46037;DHT22;31769;49.304;8.428;2023-07-16T15:01:19;35.60;46.70
46037;DHT22;31769;49.304;8.428;2023-07-16T15:04:20;34.40;48.00
46037;DHT22;31769;49.304;8.428;2023-07-16T15:07:21;31.90;51.80
46037;DHT22;31769;49.304;8.428;2023-07-16T15:10:21;31.30;52.50
46037;DHT22;31769;49.304;8.428;2023-07-16T15:13:23;31.90;52.20
46037;DHT22;31769;49.304;8.428;2023-07-16T15:16:28;30.90;53.40
46037;DHT22;31769;49.304;8.428;2023-07-16T15:19:29;29.10;56.30
46037;DHT22;31769;49.304;8.428;2023-07-16T15:22:30;28.30;57.20
46037;DHT22;31769;49.304;8.428;2023-07-16T15:25:33;27.90;58.10
46037;DHT22;31769;49.304;8.428;2023-07-16T15:28:34;27.50;59.00
46037;DHT22;31769;49.304;8.428;2023-07-16T15:31:37;29.90;55.80
46037;DHT22;31769;49.304;8.428;2023-07-16T15:34:38;32.90;51.80
46037;DHT22;31769;49.304;8.428;2023-07-16T15:37:38;33.60;50.20
46037;DHT22;31769;49.304;8.428;2023-07-16T15:40:39;33.10;50.40
46037;DHT22;31769;49.304;8.428;2023-07-16T15:43:40;30.90;52.70
46037;DHT22;31769;49.304;8.428;2023-07-16T15:46:40;29.90;54.40
46037;DHT22;31769;49.304;8.428;2023-07-16T15:49:41;29.60;55.60
46037;DHT22;31769;49.304;8.428;2023-07-16T15:52:41;30.90;54.40
46037;DHT22;31769;49.304;8.428;2023-07-16T15:55:42;32.40;52.30
46037;DHT22;31769;49.304;8.428;2023-07-16T15:58:43;34.30;50.10
46037;DHT22;31769;49.304;8.428;2023-07-16T16:01:44;36.50;47.80
46037;DHT22;31769;49.304;8.428;2023-07-16T16:04:44;35.10;48.00
46037;DHT22;31769;49.304;8.428;2023-07-16T16:07:49;34.60;49.30
46037;DHT22;31769;49.304;8.428;2023-07-16T16:11:06;33.50;50.00
46037;DHT22;31769;49.304;8.428;2023-07-16T16:14:07;32.00;51.60
46037;DHT22;31769;49.304;8.428;2023-07-16T16:17:09;30.40;54.00
46037;DHT22;31769;49.304;8.428;2023-07-16T16:20:10;29.20;56.50
46037;DHT22;31769;49.304;8.428;2023-07-16T16:23:11;28.70;56.60
46037;DHT22;31769;49.304;8.428;2023-07-16T16:26:12;28.60;57.00
46037;DHT22;31769;49.304;8.428;2023-07-16T16:29:12;30.30;55.30
46037;DHT22;31769;49.304;8.428;2023-07-16T16:32:13;33.60;51.00
46037;DHT22;31769;49.304;8.428;2023-07-16T16:35:14;34.70;49.10
46037;DHT22;31769;49.304;8.428;2023-07-16T16:38:14;35.40;47.80
46037;DHT22;31769;49.304;8.428;2023-07-16T16:41:15;33.00;50.50
46037;DHT22;31769;49.304;8.428;2023-07-16T16:44:16;30.10;55.00
46037;DHT22;31769;49.304;8.428;2023-07-16T16:47:16;28.50;57.60
46037;DHT22;31769;49.304;8.428;2023-07-16T16:50:17;28.00;58.40
46037;DHT22;31769;49.304;8.428;2023-07-16T16:53:18;29.80;56.70
46037;DHT22;31769;49.304;8.428;2023-07-16T16:56:18;32.10;52.90
46037;DHT22;31769;49.304;8.428;2023-07-16T16:59:19;32.80;51.10
46037;DHT22;31769;49.304;8.428;2023-07-16T17:02:20;33.60;51.10
46037;DHT22;31769;49.304;8.428;2023-07-16T17:05:21;33.60;50.90
46037;DHT22;31769;49.304;8.428;2023-07-16T17:08:22;32.10;52.40
46037;DHT22;31769;49.304;8.428;2023-07-16T17:11:23;30.60;56.10
46037;DHT22;31769;49.304;8.428;2023-07-16T17:14:25;29.90;57.30
46037;DHT22;31769;49.304;8.428;2023-07-16T17:17:26;29.40;59.10
46037;DHT22;31769;49.304;8.428;2023-07-16T17:20:26;29.00;60.40
46037;DHT22;31769;49.304;8.428;2023-07-16T17:23:27;28.70;61.50
46037;DHT22;31769;49.304;8.428;2023-07-16T17:26:28;28.50;63.10
46037;DHT22;31769;49.304;8.428;2023-07-16T17:29:28;28.20;63.70
46037;DHT22;31769;49.304;8.428;2023-07-16T17:32:29;27.80;64.30
46037;DHT22;31769;49.304;8.428;2023-07-16T17:35:32;27.90;64.70
46037;DHT22;31769;49.304;8.428;2023-07-16T17:38:32;28.10;65.40
46037;DHT22;31769;49.304;8.428;2023-07-16T17:41:33;28.00;65.50
46037;DHT22;31769;49.304;8.428;2023-07-16T17:44:37;27.40;67.30
46037;DHT22;31769;49.304;8.428;2023-07-16T17:47:38;26.80;69.00
46037;DHT22;31769;49.304;8.428;2023-07-16T17:50:39;26.10;71.50
46037;DHT22;31769;49.304;8.428;2023-07-16T17:53:39;25.70;73.10
46037;DHT22;31769;49.304;8.428;2023-07-16T17:56:41;25.50;73.80
46037;DHT22;31769;49.304;8.428;2023-07-16T17:59:42;25.40;74.80
46037;DHT22;31769;49.304;8.428;2023-07-16T18:02:42;25.50;75.10
46037;DHT22;31769;49.304;8.428;2023-07-16T18:05:43;25.90;74.60
46037;DHT22;31769;49.304;8.428;2023-07-16T18:08:44;25.90;75.30
46037;DHT22;31769;49.304;8.428;2023-07-16T18:11:44;25.70;75.60
46037;DHT22;31769;49.304;8.428;2023-07-16T18:14:45;25.50;76.60
46037;DHT22;31769;49.304;8.428;2023-07-16T18:17:46;25.40;77.30
46037;DHT22;31769;49.304;8.428;2023-07-16T18:20:47;25.30;77.50
46037;DHT22;31769;49.304;8.428;2023-07-16T18:23:47;25.30;78.30
46037;DHT22;31769;49.304;8.428;2023-07-16T18:26:48;25.40;78.30
46037;DHT22;31769;49.304;8.428;2023-07-16T18:29:49;25.30;78.00
46037;DHT22;31769;49.304;8.428;2023-07-16T18:32:50;25.20;79.10
46037;DHT22;31769;49.304;8.428;2023-07-16T18:35:54;25.10;79.70
46037;DHT22;31769;49.304;8.428;2023-07-16T18:38:55;24.80;81.50
46037;DHT22;31769;49.304;8.428;2023-07-16T18:41:56;24.60;82.00
46037;DHT22;31769;49.304;8.428;2023-07-16T18:44:57;24.80;82.40
46037;DHT22;31769;49.304;8.428;2023-07-16T18:48:00;24.80;82.80
46037;DHT22;31769;49.304;8.428;2023-07-16T18:51:00;24.70;83.20
46037;DHT22;31769;49.304;8.428;2023-07-16T18:54:01;24.80;83.90
46037;DHT22;31769;49.304;8.428;2023-07-16T18:57:02;24.40;85.20
46037;DHT22;31769;49.304;8.428;2023-07-16T19:00:04;24.30;85.90
46037;DHT22;31769;49.304;8.428;2023-07-16T19:03:07;24.10;87.10
46037;DHT22;31769;49.304;8.428;2023-07-16T19:06:07;24.10;88.30
46037;DHT22;31769;49.304;8.428;2023-07-16T19:09:08;23.90;89.30
46037;DHT22;31769;49.304;8.428;2023-07-16T19:12:09;23.70;90.30
46037;DHT22;31769;49.304;8.428;2023-07-16T19:15:10;23.60;90.80